Time;durP1;ratioP1;P1;durP2;ratioP2;P2;SDS_P1;SDS_P2;PMS_P1;PMS_P2;Temp;Humidity;BMP_temperature;BMP_pressure;BME280_temperature;BME280_humidity;BME280_pressure;Samples;Min_cycle;Max_cycle;Signal;HPM_P1;HPM_P2
2022/04/15 00:02:17;;;;;;;;;8.00;6.75;;;;;-142.59;100.00;56100.38;5093709;27;50529;-67
2022/04/15 00:04:43;;;;;;;;;5.75;5.75;;;;;-142.59;100.00;56100.38;5093262;27;49939;-70
2022/04/15 00:07:08;;;;;;;;;6.75;6.00;;;;;-142.59;100.00;56100.38;5092759;27;49837;-67
2022/04/15 00:09:35;;;;;;;;;6.00;6.00;;;;;-142.59;100.00;56100.38;5105021;27;50389;-67
2022/04/15 00:12:06;;;;;;;;;8.50;8.50;;;;;-142.59;100.00;56100.38;5092910;27;49747;-67
2022/04/15 00:14:32;;;;;;;;;5.75;5.75;;;;;-142.59;100.00;56100.38;5092947;27;49925;-68
2022/04/15 00:16:58;;;;;;;;;6.25;6.00;;;;;-142.59;100.00;56100.38;5092815;27;50518;-67
2022/04/15 00:19:23;;;;;;;;;8.75;6.50;;;;;-142.59;100.00;56100.38;5092865;27;49733;-68
2022/04/15 00:21:49;;;;;;;;;8.50;5.25;;;;;-142.59;100.00;56100.38;5093309;27;49861;-72
2022/04/15 00:24:14;;;;;;;;;6.25;5.25;;;;;-142.59;100.00;56100.38;5092785;27;49738;-68
2022/04/15 00:26:40;;;;;;;;;7.00;5.25;;;;;-142.59;100.00;56100.38;5091591;27;56114;-67
2022/04/15 00:29:06;;;;;;;;;9.50;8.00;;;;;-142.59;100.00;56100.38;5092118;27;49698;-67
2022/04/15 00:31:32;;;;;;;;;2.50;2.00;;;;;-142.59;100.00;56100.38;5092809;27;49704;-69
2022/04/15 00:33:57;;;;;;;;;6.50;6.50;;;;;-142.59;100.00;56100.38;5092768;27;49601;-69
2022/04/15 00:36:23;;;;;;;;;5.75;5.75;;;;;-142.59;100.00;56100.38;5092695;27;50643;-67
2022/04/15 00:38:48;;;;;;;;;7.00;7.00;;;;;-142.59;100.00;56100.38;5092611;27;49793;-67
2022/04/15 00:41:17;;;;;;;;;8.75;6.75;;;;;-142.59;100.00;56100.38;5092765;27;50395;-71
2022/04/15 00:43:42;;;;;;;;;5.25;5.25;;;;;-142.59;100.00;56100.38;5105793;27;49891;-70
2022/04/15 00:46:08;;;;;;;;;11.75;8.75;;;;;-142.59;100.00;56100.38;5092136;27;49749;-68
2022/04/15 00:48:36;;;;;;;;;10.50;9.25;;;;;-142.59;100.00;56100.38;5092322;27;49811;-71
2022/04/15 00:51:02;;;;;;;;;10.25;10.25;;;;;-142.59;100.00;56100.38;5092391;27;50272;-67
2022/04/15 00:53:29;;;;;;;;;10.25;8.25;;;;;-142.59;100.00;56100.38;5092546;27;49682;-71
2022/04/15 00:55:59;;;;;;;;;10.75;10.75;;;;;-142.59;100.00;56100.38;5092222;27;50798;-67
2022/04/15 00:58:25;;;;;;;;;11.75;11.75;;;;;-142.59;100.00;56100.38;5092364;27;50035;-69
2022/04/15 01:00:54;;;;;;;;;4.25;4.25;;;;;-142.59;100.00;56100.38;5092226;27;49818;-68
2022/04/15 01:03:21;;;;;;;;;9.75;8.25;;;;;-142.59;100.00;56100.38;5092267;27;49763;-67
2022/04/15 01:05:49;;;;;;;;;10.75;10.75;;;;;-142.59;100.00;56100.38;5091798;27;50495;-67
2022/04/15 01:08:19;;;;;;;;;20.25;16.25;;;;;-142.59;100.00;56100.38;5092068;27;49786;-71
2022/04/15 01:10:47;;;;;;;;;12.50;11.75;;;;;-142.59;100.00;56100.38;5092114;27;50007;-71
2022/04/15 01:13:13;;;;;;;;;13.25;13.25;;;;;-142.59;100.00;56100.38;5092172;27;49628;-68
2022/04/15 01:15:40;;;;;;;;;12.50;11.25;;;;;-142.59;100.00;56100.38;5091821;27;50223;-67
2022/04/15 01:18:06;;;;;;;;;12.50;11.00;;;;;-142.59;100.00;56100.38;5091881;27;49791;-67
2022/04/15 01:20:32;;;;;;;;;10.75;10.75;;;;;-142.59;100.00;56100.38;5091830;27;49624;-68
2022/04/15 01:22:57;;;;;;;;;14.50;14.50;;;;;-142.59;100.00;56100.38;5091893;27;49699;-71
2022/04/15 01:25:22;;;;;;;;;15.50;15.50;;;;;-142.59;100.00;56100.38;5091588;27;49731;-69
2022/04/15 01:27:48;;;;;;;;;13.75;13.00;;;;;-142.59;100.00;56100.38;5091493;27;49825;-70
2022/04/15 01:30:21;;;;;;;;;17.25;14.75;;;;;-142.59;100.00;56100.38;5091899;27;49691;-68
2022/04/15 01:32:48;;;;;;;;;16.25;14.00;;;;;-142.59;100.00;56100.38;5091991;27;49782;-67
2022/04/15 01:35:15;;;;;;;;;11.00;8.00;;;;;-142.59;100.00;56100.38;5091582;27;50715;-68
2022/04/15 01:37:43;;;;;;;;;15.50;15.00;;;;;-142.59;100.00;56100.38;5092204;27;49976;-67
2022/04/15 01:40:11;;;;;;;;;16.75;14.75;;;;;-142.59;100.00;56100.38;5091392;27;49747;-67
2022/04/15 01:42:38;;;;;;;;;12.50;12.00;;;;;-142.59;100.00;56100.38;5091667;27;49690;-68
2022/04/15 01:45:04;;;;;;;;;15.75;14.75;;;;;-142.59;100.00;56100.38;5091408;27;50631;-68
2022/04/15 01:47:30;;;;;;;;;11.75;11.00;;;;;-142.59;100.00;56100.38;5091449;27;49683;-68
2022/04/15 01:49:55;;;;;;;;;16.75;14.75;;;;;-142.59;100.00;56100.38;5091820;27;49607;-71
2022/04/15 01:52:21;;;;;;;;;15.50;14.75;;;;;-142.59;100.00;56100.38;5091808;27;49839;-71
2022/04/15 01:54:47;;;;;;;;;12.25;12.25;;;;;-142.59;100.00;56100.38;5091322;27;49868;-72
2022/04/15 01:57:13;;;;;;;;;13.75;13.25;;;;;-142.59;100.00;56100.38;5091519;27;49805;-71
2022/04/15 01:59:39;;;;;;;;;14.50;12.50;;;;;-142.59;100.00;56100.38;5091184;27;49746;-67
2022/04/15 02:02:06;;;;;;;;;12.50;11.50;;;;;-142.59;100.00;56100.38;5091800;27;50097;-69
2022/04/15 02:04:32;;;;;;;;;15.25;13.75;;;;;-142.59;100.00;56100.38;5091122;27;49736;-68
2022/04/15 02:06:57;;;;;;;;;15.25;13.25;;;;;-142.59;100.00;56100.38;5091332;27;49741;-71
2022/04/15 02:09:23;;;;;;;;;22.00;17.00;;;;;-142.59;100.00;56100.38;5091576;27;49840;-71
2022/04/15 02:11:49;;;;;;;;;19.00;16.00;;;;;-142.59;100.00;56100.38;5091475;27;49590;-71
2022/04/15 02:14:16;;;;;;;;;19.75;17.50;;;;;-142.59;100.00;56100.38;5090697;27;49686;-72
2022/04/15 02:16:42;;;;;;;;;20.75;16.25;;;;;-142.59;100.00;56100.38;5090958;27;49702;-71
2022/04/15 02:19:08;;;;;;;;;22.75;20.25;;;;;-142.59;100.00;56100.38;5091237;27;49691;-71
2022/04/15 02:21:33;;;;;;;;;14.75;14.75;;;;;-142.59;100.00;56100.38;5091530;27;49766;-71
2022/04/15 02:23:59;;;;;;;;;17.00;16.00;;;;;-142.59;100.00;56100.38;5090888;27;50546;-71
2022/04/15 02:26:24;;;;;;;;;16.00;14.00;;;;;-142.59;100.00;56100.38;5089926;27;49720;-72
2022/04/15 02:28:49;;;;;;;;;17.00;15.25;;;;;-142.59;100.00;56100.38;5090952;27;49941;-70
2022/04/15 02:31:15;;;;;;;;;15.00;15.00;;;;;-142.59;100.00;56100.38;5091095;27;49777;-70
2022/04/15 02:33:41;;;;;;;;;19.25;17.75;;;;;-142.59;100.00;56100.38;5090771;27;50394;-70
2022/04/15 02:36:06;;;;;;;;;18.75;17.50;;;;;-142.59;100.00;56100.38;5089421;27;49895;-71
2022/04/15 02:38:32;;;;;;;;;19.75;19.25;;;;;-142.59;100.00;56100.38;5090978;27;49608;-71
2022/04/15 02:40:58;;;;;;;;;18.75;18.25;;;;;-142.59;100.00;56100.38;5091635;27;50247;-71
2022/04/15 02:43:31;;;;;;;;;18.25;15.50;;;;;-142.59;100.00;56100.38;5090624;27;49782;-72
2022/04/15 02:46:01;;;;;;;;;18.00;16.00;;;;;-142.59;100.00;56100.38;5090738;27;49701;-71
2022/04/15 02:48:26;;;;;;;;;18.00;18.00;;;;;-142.59;100.00;56100.38;5090849;27;49632;-71
2022/04/15 02:50:53;;;;;;;;;18.25;18.25;;;;;-142.59;100.00;56100.38;5092310;27;49917;-70
2022/04/15 02:53:18;;;;;;;;;19.00;18.00;;;;;-142.59;100.00;56100.38;5093959;27;50397;-71
2022/04/15 02:55:43;;;;;;;;;15.00;14.00;;;;;-142.59;100.00;56100.38;5094200;27;49751;-70
2022/04/15 02:58:09;;;;;;;;;19.50;17.25;;;;;-142.59;100.00;56100.38;5092427;27;49840;-71
2022/04/15 03:00:34;;;;;;;;;15.75;15.75;;;;;-142.59;100.00;56100.38;5094370;27;49944;-72
2022/04/15 03:03:00;;;;;;;;;17.25;16.00;;;;;-142.59;100.00;56100.38;5094426;27;50059;-72
2022/04/15 03:05:25;;;;;;;;;22.75;18.25;;;;;-142.59;100.00;56100.38;5093946;27;49859;-72
2022/04/15 03:07:50;;;;;;;;;20.00;19.00;;;;;-142.59;100.00;56100.38;5093983;27;49881;-67
2022/04/15 03:10:16;;;;;;;;;22.50;19.75;;;;;-142.59;100.00;56100.38;5094121;27;49961;-68
2022/04/15 03:12:41;;;;;;;;;19.00;19.00;;;;;-142.59;100.00;56100.38;5093487;27;50367;-71
2022/04/15 03:15:11;;;;;;;;;19.50;17.25;;;;;-142.59;100.00;56100.38;5094020;27;49692;-71
2022/04/15 03:17:36;;;;;;;;;21.25;21.00;;;;;-142.59;100.00;56100.38;5094104;27;49711;-72
2022/04/15 03:20:03;;;;;;;;;20.25;20.00;;;;;-142.59;100.00;56100.38;5092724;27;49893;-71
2022/04/15 03:22:36;;;;;;;;;22.00;22.00;;;;;-142.59;100.00;56100.38;5093864;27;50066;-71
2022/04/15 03:25:02;;;;;;;;;27.00;20.00;;;;;-142.59;100.00;56100.38;5093739;27;49780;-71
2022/04/15 03:27:28;;;;;;;;;17.50;17.00;;;;;-142.59;100.00;56100.38;5093399;27;49643;-71
2022/04/15 03:29:53;;;;;;;;;17.50;15.25;;;;;-142.59;100.00;56100.38;5093467;27;49817;-72
2022/04/15 03:32:18;;;;;;;;;21.00;20.00;;;;;-142.59;100.00;56100.38;5093578;27;49767;-71
2022/04/15 03:34:44;;;;;;;;;23.25;23.00;;;;;-142.59;100.00;56100.38;5093739;27;49763;-71
2022/04/15 03:37:09;;;;;;;;;25.00;20.50;;;;;-142.59;100.00;56100.38;5093795;27;49903;-71
2022/04/15 03:39:35;;;;;;;;;20.50;18.75;;;;;-142.59;100.00;56100.38;5093905;27;49682;-67
2022/04/15 03:42:01;;;;;;;;;22.75;19.00;;;;;-142.59;100.00;56100.38;5092998;27;49705;-69
2022/04/15 03:44:27;;;;;;;;;23.75;21.50;;;;;-142.59;100.00;56100.38;5093039;27;49813;-70
2022/04/15 03:46:52;;;;;;;;;20.75;18.50;;;;;-142.59;100.00;56100.38;5093301;27;49726;-68
2022/04/15 03:49:18;;;;;;;;;21.25;19.00;;;;;-142.59;100.00;56100.38;5093883;27;49916;-69
2022/04/15 03:51:43;;;;;;;;;17.75;17.75;;;;;-142.59;100.00;56100.38;5092895;27;49889;-68
2022/04/15 03:54:08;;;;;;;;;19.00;17.00;;;;;-142.59;100.00;56100.38;5093332;27;49771;-71
2022/04/15 03:56:34;;;;;;;;;19.25;16.75;;;;;-142.59;100.00;56100.38;5093227;27;49738;-70
2022/04/15 03:58:59;;;;;;;;;17.50;17.00;;;;;-142.59;100.00;56100.38;5092713;27;49655;-68
2022/04/15 04:01:25;;;;;;;;;23.50;22.75;;;;;-142.59;100.00;56100.38;5092036;27;50540;-70
2022/04/15 04:03:51;;;;;;;;;18.75;18.25;;;;;-142.59;100.00;56100.38;5091976;27;49889;-68
2022/04/15 04:06:17;;;;;;;;;18.25;18.25;;;;;-142.59;100.00;56100.38;5092901;27;49709;-66
2022/04/15 04:08:49;;;;;;;;;22.00;19.25;;;;;-142.59;100.00;56100.38;5092917;27;49813;-66
2022/04/15 04:11:18;;;;;;;;;19.25;17.75;;;;;-142.59;100.00;56100.38;5092629;27;50476;-70
2022/04/15 04:13:44;;;;;;;;;20.00;20.00;;;;;-142.59;100.00;56100.38;5092730;27;50024;-67
2022/04/15 04:16:11;;;;;;;;;19.00;17.25;;;;;-142.59;100.00;56100.38;5092533;27;49721;-67
2022/04/15 04:18:38;;;;;;;;;18.50;17.25;;;;;-142.59;100.00;56100.38;5092917;27;49846;-68
2022/04/15 04:21:03;;;;;;;;;20.00;18.75;;;;;-142.59;100.00;56100.38;5092511;27;50458;-67
2022/04/15 04:23:28;;;;;;;;;16.00;14.75;;;;;-142.59;100.00;56100.38;5092313;27;49851;-67
2022/04/15 04:25:54;;;;;;;;;14.75;14.75;;;;;-142.59;100.00;56100.38;5092683;27;50354;-66
2022/04/15 04:28:19;;;;;;;;;13.50;11.75;;;;;-142.59;100.00;56100.38;5092886;27;49762;-68
2022/04/15 04:30:44;;;;;;;;;18.75;18.50;;;;;-142.59;100.00;56100.38;5092069;27;53243;-67
2022/04/15 04:33:10;;;;;;;;;19.00;18.00;;;;;-142.59;100.00;56100.38;5105251;27;49935;-68
2022/04/15 04:35:37;;;;;;;;;15.50;15.50;;;;;-142.59;100.00;56100.38;5095926;27;49793;-67
2022/04/15 04:38:04;;;;;;;;;20.25;16.75;;;;;-142.59;100.00;56100.38;5096922;27;49800;-67
2022/04/15 04:40:29;;;;;;;;;17.00;15.25;;;;;-142.59;100.00;56100.38;5105123;27;49762;-67
2022/04/15 04:42:56;;;;;;;;;17.75;14.25;;;;;-142.59;100.00;56100.38;5101459;27;49785;-67
2022/04/15 04:45:21;;;;;;;;;16.75;15.25;;;;;-142.59;100.00;56100.38;5095554;27;49742;-67
2022/04/15 04:47:47;;;;;;;;;17.50;17.00;;;;;-142.59;100.00;56100.38;5111891;27;49739;-68
2022/04/15 04:50:12;;;;;;;;;16.25;16.25;;;;;-142.59;100.00;56100.38;5105083;27;49695;-67
2022/04/15 04:52:38;;;;;;;;;17.00;13.25;;;;;-142.59;100.00;56100.38;5105161;27;49841;-67
2022/04/15 04:55:05;;;;;;;;;20.50;19.50;;;;;-142.59;100.00;56100.38;5106779;27;49915;-67
2022/04/15 04:57:31;;;;;;;;;19.25;17.00;;;;;-142.59;100.00;56100.38;5105432;27;49754;-67
2022/04/15 04:59:56;;;;;;;;;16.00;16.00;;;;;-142.59;100.00;56100.38;5104760;27;50363;-68
2022/04/15 05:02:22;;;;;;;;;15.25;15.25;;;;;-142.59;100.00;56100.38;5102616;27;49691;-67
2022/04/15 05:04:48;;;;;;;;;19.00;16.75;;;;;-142.59;100.00;56100.38;5104543;27;49478;-67
2022/04/15 05:07:14;;;;;;;;;16.75;15.00;;;;;-142.59;100.00;56100.38;5105076;27;49940;-68
2022/04/15 05:09:41;;;;;;;;;22.00;20.50;;;;;-142.59;100.00;56100.38;5101548;27;49858;-66
2022/04/15 05:12:08;;;;;;;;;19.75;18.50;;;;;-142.59;100.00;56100.38;5097511;27;49972;-66
2022/04/15 05:14:33;;;;;;;;;18.25;17.00;;;;;-142.59;100.00;56100.38;5102403;27;49853;-67
2022/04/15 05:16:58;;;;;;;;;2.25;2.25;;;;;-142.59;100.00;56100.38;5097000;27;49917;-67
2022/04/15 05:19:24;;;;;;;;;15.75;14.75;;;;;-142.59;100.00;56100.38;5100443;27;50892;-70
2022/04/15 05:21:49;;;;;;;;;21.50;20.00;;;;;-142.59;100.00;56100.38;5104615;27;49828;-67
2022/04/15 05:24:14;;;;;;;;;17.25;17.25;;;;;-142.59;100.00;56100.38;5104436;27;49628;-67
2022/04/15 05:26:40;;;;;;;;;15.50;15.00;;;;;-142.59;100.00;56100.38;5110032;27;49503;-70
2022/04/15 05:29:05;;;;;;;;;20.75;17.25;;;;;-142.59;100.00;56100.38;5093243;27;50373;-67
2022/04/15 05:31:31;;;;;;;;;21.75;19.50;;;;;-142.59;100.00;56100.38;5093897;27;49040;-70
2022/04/15 05:33:56;;;;;;;;;14.75;14.75;;;;;-142.59;100.00;56100.38;5091645;27;49640;-65
2022/04/15 05:36:22;;;;;;;;;19.50;19.50;;;;;-142.59;100.00;56100.38;5094212;27;49825;-66
2022/04/15 05:38:47;;;;;;;;;21.50;17.25;;;;;-142.59;100.00;56100.38;5103242;27;50358;-65
2022/04/15 05:41:12;;;;;;;;;25.25;22.50;;;;;-142.59;100.00;56100.38;5104653;27;49698;-65
2022/04/15 05:43:38;;;;;;;;;22.00;16.50;;;;;-142.59;100.00;56100.38;5104858;27;49837;-62
2022/04/15 05:46:03;;;;;;;;;21.75;18.00;;;;;-142.59;100.00;56100.38;5099747;27;49746;-64
2022/04/15 05:48:29;;;;;;;;;21.50;19.75;;;;;-142.59;100.00;56100.38;5104396;27;49845;-64
2022/04/15 05:50:54;;;;;;;;;22.00;19.00;;;;;-142.59;100.00;56100.38;5110897;27;49774;-64
2022/04/15 05:53:20;;;;;;;;;18.00;17.00;;;;;-142.59;100.00;56100.38;5104453;27;49766;-68
2022/04/15 05:55:45;;;;;;;;;20.50;18.00;;;;;-142.59;100.00;56100.38;5104471;27;49652;-65
2022/04/15 05:58:10;;;;;;;;;13.25;13.25;;;;;-142.59;100.00;56100.38;5101125;27;50679;-65
2022/04/15 06:00:37;;;;;;;;;17.50;17.50;;;;;-142.59;100.00;56100.38;5107592;27;50038;-66
2022/04/15 06:03:02;;;;;;;;;16.50;15.50;;;;;-142.59;100.00;56100.38;5104078;27;49907;-68
2022/04/15 06:05:28;;;;;;;;;17.50;17.00;;;;;-142.59;100.00;56100.38;5097497;27;49759;-69
2022/04/15 06:07:53;;;;;;;;;18.25;17.50;;;;;-142.59;100.00;56100.38;5101851;27;50924;-68
2022/04/15 06:10:19;;;;;;;;;20.75;18.25;;;;;-142.59;100.00;56100.38;5100200;27;49833;-69
2022/04/15 06:13:04;;;;;;;;;19.25;18.00;;;;;-142.59;100.00;56100.38;5103562;27;49900;-70
2022/04/15 06:15:33;;;;;;;;;15.25;15.25;;;;;-142.59;100.00;56100.38;5100384;27;49807;-73
2022/04/15 06:18:00;;;;;;;;;14.25;14.25;;;;;-142.59;100.00;56100.38;5096806;27;51804;-73
2022/04/15 06:20:27;;;;;;;;;17.75;14.75;;;;;-142.59;100.00;56100.38;5104423;27;49812;-74
2022/04/15 06:22:53;;;;;;;;;14.00;12.75;;;;;-142.59;100.00;56100.38;5094909;27;49814;-73
2022/04/15 06:25:18;;;;;;;;;15.25;13.25;;;;;-142.59;100.00;56100.38;5096936;27;50636;-71
2022/04/15 06:27:44;;;;;;;;;19.25;17.50;;;;;-142.59;100.00;56100.38;5096656;27;49722;-73
2022/04/15 06:30:11;;;;;;;;;20.50;17.75;;;;;-142.59;100.00;56100.38;5094415;27;49816;-69
2022/04/15 06:32:37;;;;;;;;;20.25;19.25;;;;;-142.59;100.00;56100.38;5100947;27;49794;-68
2022/04/15 06:35:04;;;;;;;;;21.50;21.50;;;;;-142.59;100.00;56100.38;5110077;27;49812;-71
2022/04/15 06:37:29;;;;;;;;;21.75;21.75;;;;;-142.59;100.00;56100.38;5105329;27;50571;-64
2022/04/15 06:39:54;;;;;;;;;20.75;20.75;;;;;-142.59;100.00;56100.38;5097573;27;52352;-62
2022/04/15 06:42:21;;;;;;;;;21.50;20.25;;;;;-142.59;100.00;56100.38;5101817;27;49697;-63
2022/04/15 06:44:47;;;;;;;;;22.00;20.25;;;;;-142.59;100.00;56100.38;5099711;27;49760;-63
2022/04/15 06:47:12;;;;;;;;;19.00;19.00;;;;;-142.59;100.00;56100.38;5107261;27;50186;-64
2022/04/15 06:49:38;;;;;;;;;27.00;27.00;;;;;-142.59;100.00;56100.38;5100782;27;54447;-63
2022/04/15 06:52:03;;;;;;;;;21.75;21.75;;;;;-142.59;100.00;56100.38;5111213;27;49722;-62
2022/04/15 06:54:29;;;;;;;;;25.00;22.75;;;;;-142.59;100.00;56100.38;5099340;27;49832;-66
2022/04/15 06:56:54;;;;;;;;;23.25;21.25;;;;;-142.59;100.00;56100.38;5093847;27;49821;-68
2022/04/15 06:59:20;;;;;;;;;23.75;21.50;;;;;-142.59;100.00;56100.38;5093791;27;49750;-71
2022/04/15 07:01:46;;;;;;;;;20.00;19.25;;;;;-142.59;100.00;56100.38;5094104;27;49687;-66
2022/04/15 07:04:12;;;;;;;;;19.00;16.75;;;;;-142.59;100.00;56100.38;5094246;27;49893;-70
2022/04/15 07:06:37;;;;;;;;;20.75;18.00;;;;;-142.59;100.00;56100.38;5093789;27;49727;-68
2022/04/15 07:09:02;;;;;;;;;18.75;18.75;;;;;-142.59;100.00;56100.38;5094121;27;49793;-67
2022/04/15 07:11:28;;;;;;;;;19.25;16.75;;;;;-142.59;100.00;56100.38;5094161;27;49622;-64
2022/04/15 07:13:53;;;;;;;;;21.25;20.00;;;;;-142.59;100.00;56100.38;5094121;27;49934;-64
2022/04/15 07:16:18;;;;;;;;;15.25;14.50;;;;;-142.59;100.00;56100.38;5093861;27;49717;-64
2022/04/15 07:18:44;;;;;;;;;20.75;15.75;;;;;-142.59;100.00;56100.38;5093932;27;49732;-70
2022/04/15 07:21:11;;;;;;;;;21.75;18.25;;;;;-142.59;100.00;56100.38;5093991;27;49691;-67
2022/04/15 07:23:36;;;;;;;;;14.75;14.50;;;;;-142.59;100.00;56100.38;5093954;27;49750;-67
2022/04/15 07:26:02;;;;;;;;;19.75;18.75;;;;;-142.59;100.00;56100.38;5093504;27;49746;-70
2022/04/15 07:28:27;;;;;;;;;18.50;17.75;;;;;-142.59;100.00;56100.38;5093877;27;49788;-66
2022/04/15 07:30:52;;;;;;;;;18.25;17.75;;;;;-142.59;100.00;56100.38;5093511;27;49787;-69
2022/04/15 07:33:19;;;;;;;;;18.00;14.75;;;;;-142.59;100.00;56100.38;5094126;27;49636;-71
2022/04/15 07:35:45;;;;;;;;;20.75;16.50;;;;;-142.59;100.00;56100.38;5093277;27;49824;-72
2022/04/15 07:38:10;;;;;;;;;21.00;19.75;;;;;-142.59;100.00;56100.38;5093394;27;49852;-71
2022/04/15 07:40:36;;;;;;;;;16.00;16.00;;;;;-142.59;100.00;56100.38;5096217;27;49596;-70
2022/04/15 07:43:01;;;;;;;;;15.25;13.25;;;;;-142.59;100.00;56100.38;5106746;27;49583;-67
2022/04/15 07:45:27;;;;;;;;;17.50;16.25;;;;;-142.59;100.00;56100.38;5110252;27;49797;-68
2022/04/15 07:47:52;;;;;;;;;16.50;15.25;;;;;-142.59;100.00;56100.38;5109588;27;49584;-72
2022/04/15 07:50:23;;;;;;;;;22.00;19.75;;;;;-142.59;100.00;56100.38;5108626;27;49345;-71
2022/04/15 07:52:50;;;;;;;;;14.00;14.00;;;;;-142.59;100.00;56100.38;5109380;27;49808;-71
2022/04/15 07:55:15;;;;;;;;;17.00;14.25;;;;;-142.59;100.00;56100.38;5108008;27;49536;-66
2022/04/15 07:57:41;;;;;;;;;17.00;15.00;;;;;-142.59;100.00;56100.38;5101610;27;49738;-68
2022/04/15 08:00:07;;;;;;;;;13.00;12.50;;;;;-142.59;100.00;56100.38;5093928;27;49826;-69
2022/04/15 08:02:32;;;;;;;;;14.00;14.00;;;;;-142.59;100.00;56100.38;5093340;27;49824;-69
2022/04/15 08:04:58;;;;;;;;;21.50;19.25;;;;;-142.59;100.00;56100.38;5093000;27;49877;-71
2022/04/15 08:07:24;;;;;;;;;16.00;13.75;;;;;-142.59;100.00;56100.38;5093654;27;50024;-72
2022/04/15 08:09:49;;;;;;;;;16.75;16.00;;;;;-142.59;100.00;56100.38;5093211;27;49797;-71
2022/04/15 08:12:15;;;;;;;;;17.75;17.00;;;;;-142.59;100.00;56100.38;5093130;27;49845;-68
2022/04/15 08:14:40;;;;;;;;;19.75;18.00;;;;;-142.59;100.00;56100.38;5092581;27;50488;-68
2022/04/15 08:17:05;;;;;;;;;20.75;16.50;;;;;-142.59;100.00;56100.38;5092860;27;49710;-72
2022/04/15 08:19:31;;;;;;;;;17.00;15.25;;;;;-142.59;100.00;56100.38;5093106;27;49869;-71
2022/04/15 08:21:58;;;;;;;;;13.50;12.25;;;;;-142.59;100.00;56100.38;5093284;27;49618;-71
2022/04/15 08:24:23;;;;;;;;;16.50;16.25;;;;;-142.59;100.00;56100.38;5092385;27;50913;-70
2022/04/15 08:26:49;;;;;;;;;21.00;18.75;;;;;-142.59;100.00;56100.38;5092789;27;49627;-70
2022/04/15 08:29:15;;;;;;;;;23.50;23.00;;;;;-142.59;100.00;56100.38;5092526;27;49893;-71
2022/04/15 08:31:40;;;;;;;;;24.75;19.25;;;;;-142.59;100.00;56100.38;5092845;27;49933;-70
2022/04/15 08:34:06;;;;;;;;;13.25;12.00;;;;;-142.59;100.00;56100.38;5092535;27;50533;-71
2022/04/15 08:36:32;;;;;;;;;25.00;22.50;;;;;-142.59;100.00;56100.38;5092687;27;49978;-72
2022/04/15 08:38:58;;;;;;;;;21.75;21.75;;;;;-142.59;100.00;56100.38;5093475;27;49878;-69
2022/04/15 08:41:26;;;;;;;;;29.50;25.00;;;;;-142.59;100.00;56100.38;5092816;27;49521;-62
2022/04/15 08:43:54;;;;;;;;;25.25;22.00;;;;;-142.59;100.00;56100.38;5093144;27;51090;-62
2022/04/15 08:46:21;;;;;;;;;25.75;21.75;;;;;-142.59;100.00;56100.38;5104220;27;49994;-73
2022/04/15 08:48:49;;;;;;;;;26.00;20.00;;;;;-142.59;100.00;56100.38;5109459;27;50875;-63
2022/04/15 08:51:15;;;;;;;;;22.75;22.25;;;;;-142.59;100.00;56100.38;5098509;27;49743;-62
2022/04/15 08:53:42;;;;;;;;;24.75;22.75;;;;;-142.59;100.00;56100.38;5111028;27;50358;-62
2022/04/15 08:56:07;;;;;;;;;18.50;18.00;;;;;-142.59;100.00;56100.38;5110638;27;49796;-62
2022/04/15 08:58:33;;;;;;;;;22.25;21.50;;;;;-142.59;100.00;56100.38;5111843;27;49796;-61
2022/04/15 09:00:58;;;;;;;;;15.75;15.50;;;;;-142.59;100.00;56100.38;5112003;27;49865;-62
2022/04/15 09:03:24;;;;;;;;;12.00;11.50;;;;;-142.59;100.00;56100.38;5111954;27;49973;-62
2022/04/15 09:05:51;;;;;;;;;12.50;11.25;;;;;-142.59;100.00;56100.38;5112329;27;50017;-63
2022/04/15 09:08:17;;;;;;;;;14.50;14.00;;;;;-142.59;100.00;56100.38;5111985;27;50001;-63
2022/04/15 09:10:42;;;;;;;;;13.75;13.00;;;;;-142.59;100.00;56100.38;5112158;27;49919;-63
2022/04/15 09:13:20;;;;;;;;;10.25;5.25;;;;;-142.59;100.00;56100.38;5110563;27;49866;-64
2022/04/15 09:15:46;;;;;;;;;8.75;6.25;;;;;-142.59;100.00;56100.38;5116721;27;49227;-74
2022/04/15 09:18:28;;;;;;;;;3.25;3.25;;;;;-142.59;100.00;56100.38;5111518;27;49427;-62
2022/04/15 09:20:53;;;;;;;;;5.50;4.00;;;;;-142.59;100.00;56100.38;5115038;27;49610;-62
2022/04/15 09:23:19;;;;;;;;;6.00;5.00;;;;;-142.59;100.00;56100.38;5105207;27;54429;-63
2022/04/15 09:25:46;;;;;;;;;4.00;4.00;;;;;-142.59;100.00;56100.38;5111765;27;49835;-63
2022/04/15 09:28:13;;;;;;;;;6.25;5.00;;;;;-142.59;100.00;56100.38;5111489;27;50090;-62
2022/04/15 09:30:39;;;;;;;;;4.25;4.25;;;;;-142.59;100.00;56100.38;5112590;27;49853;-61
2022/04/15 09:33:05;;;;;;;;;5.00;1.50;;;;;-142.59;100.00;56100.38;5112965;27;51543;-62
2022/04/15 09:35:30;;;;;;;;;1.00;1.00;;;;;-142.59;100.00;56100.38;5110785;27;49646;-61
2022/04/15 09:38:03;;;;;;;;;3.75;2.00;;;;;-142.59;100.00;56100.38;5111598;27;50236;-61
2022/04/15 09:40:31;;;;;;;;;2.50;2.00;;;;;-142.59;100.00;56100.38;5112550;27;50114;-61
2022/04/15 09:42:58;;;;;;;;;1.00;1.00;;;;;-142.59;100.00;56100.38;5103887;27;50392;-61
2022/04/15 09:45:25;;;;;;;;;3.00;1.75;;;;;-142.59;100.00;56100.38;5093982;27;49817;-61
2022/04/15 09:47:51;;;;;;;;;3.50;1.75;;;;;-142.59;100.00;56100.38;5098973;27;49843;-61
2022/04/15 09:50:27;;;;;;;;;0.75;0.75;;;;;-142.59;100.00;56100.38;5092670;27;49838;-60
2022/04/15 09:52:54;;;;;;;;;2.00;1.00;;;;;-142.59;100.00;56100.38;5098327;27;51390;-63
2022/04/15 09:55:23;;;;;;;;;1.50;1.50;;;;;-142.59;100.00;56100.38;5098339;27;49744;-61
2022/04/15 09:57:49;;;;;;;;;2.50;2.50;;;;;-142.59;100.00;56100.38;5098587;27;49977;-61
2022/04/15 10:00:16;;;;;;;;;2.00;1.00;;;;;-142.59;100.00;56100.38;5097464;27;49763;-62
2022/04/15 10:02:43;;;;;;;;;2.00;2.00;;;;;-142.59;100.00;56100.38;5095063;27;50422;-62
2022/04/15 10:05:12;;;;;;;;;1.00;1.00;;;;;-142.59;100.00;56100.38;5094775;27;49755;-61
2022/04/15 10:07:40;;;;;;;;;0.75;0.75;;;;;-142.59;100.00;56100.38;5094920;27;49673;-61
2022/04/15 10:10:08;;;;;;;;;1.00;1.00;;;;;-142.59;100.00;56100.38;5108088;27;49754;-62
2022/04/15 10:12:37;;;;;;;;;1.75;1.75;;;;;-142.59;100.00;56100.38;5094993;27;49670;-61
2022/04/15 10:15:04;;;;;;;;;2.00;0.75;;;;;-142.59;100.00;56100.38;5094475;27;49770;-61
2022/04/15 10:17:29;;;;;;;;;1.00;1.00;;;;;-142.59;100.00;56100.38;5099505;27;49874;-61
2022/04/15 10:19:55;;;;;;;;;4.00;2.25;;;;;-142.59;100.00;56100.38;5095427;27;50011;-62
2022/04/15 10:22:21;;;;;;;;;1.50;1.50;;;;;-142.59;100.00;56100.38;5094376;27;49749;-61
2022/04/15 10:24:47;;;;;;;;;2.50;1.00;;;;;-142.59;100.00;56100.38;5094442;27;49692;-61
2022/04/15 10:27:12;;;;;;;;;1.00;1.00;;;;;-142.59;100.00;56100.38;5094967;27;49870;-62
2022/04/15 10:29:38;;;;;;;;;2.25;2.25;;;;;-142.59;100.00;56100.38;5112643;27;49726;-61
2022/04/15 10:32:14;;;;;;;;;1.00;1.00;;;;;-142.59;100.00;56100.38;5113676;27;50100;-61
2022/04/15 10:34:47;;;;;;;;;1.50;1.00;;;;;-142.59;100.00;56100.38;5102279;27;49758;-62
2022/04/15 10:37:13;;;;;;;;;1.00;1.00;;;;;-142.59;100.00;56100.38;5094330;27;49693;-62
2022/04/15 10:39:47;;;;;;;;;1.50;0.50;;;;;-142.59;100.00;56100.38;5094473;27;49760;-62
2022/04/15 10:42:19;;;;;;;;;3.00;3.00;;;;;-142.59;100.00;56100.38;5093615;27;50247;-63
2022/04/15 10:44:46;;;;;;;;;1.00;1.00;;;;;-142.59;100.00;56100.38;5097939;27;49894;-63
2022/04/15 10:47:11;;;;;;;;;1.75;1.75;;;;;-142.59;100.00;56100.38;5098285;27;49646;-73
2022/04/15 10:49:40;;;;;;;;;1.00;0.25;;;;;-142.59;100.00;56100.38;5104795;27;50036;-72
2022/04/15 10:52:21;;;;;;;;;1.25;1.25;;;;;-142.59;100.00;56100.38;5096267;27;49817;-72
2022/04/15 10:54:51;;;;;;;;;2.00;2.00;;;;;-142.59;100.00;56100.38;5093778;27;49816;-61